createdAt,value
2023-04-09T07:17:30.994Z,100858.50
2023-04-09T07:19:58.624Z,100849.91
2023-04-09T07:22:27.439Z,100856.06
2023-04-09T07:24:55.287Z,100861.56
2023-04-09T07:27:24.941Z,100866.56
2023-04-09T07:29:55.979Z,100859.78
2023-04-09T07:32:24.474Z,100865.56
2023-04-09T07:34:53.256Z,100861.53
2023-04-09T07:37:23.373Z,100860.81
2023-04-09T07:39:51.584Z,100853.09
2023-04-09T07:42:19.303Z,100859.78
2023-04-09T07:44:47.622Z,100857.97
2023-04-09T07:47:15.568Z,100857.72
2023-04-09T07:49:43.124Z,100852.09
2023-04-09T07:52:10.872Z,100857.28
2023-04-09T07:54:38.262Z,100846.59
2023-04-09T07:57:05.757Z,100850.88
2023-04-09T07:59:34.350Z,100848.94
2023-04-09T08:02:01.993Z,100850.59
2023-04-09T08:04:29.726Z,100855.72
2023-04-09T08:06:57.300Z,100847.16
2023-04-09T08:09:24.747Z,100845.06
2023-04-09T08:11:53.353Z,100851.09
2023-04-09T08:14:21.436Z,100839.34
2023-04-09T08:16:50.406Z,100836.91
2023-04-09T08:19:20.190Z,100836.38
2023-04-09T08:21:49.646Z,100835.59
2023-04-09T08:24:17.408Z,100833.56
2023-04-09T08:26:45.115Z,100828.09
2023-04-09T08:29:13.733Z,100837.16
2023-04-09T08:31:42.117Z,100835.09
2023-04-09T08:34:09.681Z,100836.03
2023-04-09T08:36:37.309Z,100833.28
2023-04-09T08:39:04.899Z,100823.88
2023-04-09T08:41:36.207Z,100828.50
2023-04-09T08:44:03.971Z,100824.47
2023-04-09T08:46:31.473Z,100821.16
2023-04-09T08:48:59.129Z,100825.56
2023-04-09T08:51:26.930Z,100824.66
2023-04-09T08:53:58.404Z,100821.09
2023-04-09T08:56:26.770Z,100814.94
2023-04-09T08:58:56.713Z,100809.63
2023-04-09T09:01:25.518Z,100807.63
2023-04-09T09:04:06.752Z,100804.84
2023-04-09T09:06:39.447Z,100808.63
2023-04-09T09:09:07.854Z,100813.78
2023-04-09T09:12:02.371Z,100812.72
2023-04-09T09:14:33.323Z,100804.31
2023-04-09T09:17:03.723Z,100805.28
2023-04-09T09:19:36.722Z,100811.94
2023-04-09T09:22:08.585Z,100807.31
2023-04-09T09:24:49.793Z,100801.94
2023-04-09T09:27:39.724Z,100794.66
2023-04-09T09:30:08.913Z,100794.66
2023-04-09T09:32:37.146Z,100788.03
2023-04-09T09:35:06.624Z,100778.38
2023-04-09T09:37:34.687Z,100781.72
2023-04-09T09:40:02.324Z,100772.34
2023-04-09T09:42:30.498Z,100774.03
2023-04-09T09:44:59.529Z,100781.53
2023-04-09T09:47:29.550Z,100785.06
2023-04-09T09:49:57.303Z,100776.66
2023-04-09T09:52:27.557Z,100767.16
2023-04-09T09:54:58.961Z,100772.44
2023-04-09T09:57:30.848Z,100773.81
2023-04-09T10:00:03.927Z,100777.22
2023-04-09T10:02:59.320Z,100776.75
2023-04-09T10:05:28.141Z,100765.16
2023-04-09T10:07:58.289Z,100765.09
2023-04-09T10:10:27.377Z,100767.53
2023-04-09T10:12:56.308Z,100761.28
2023-04-09T10:15:23.963Z,100761.50
2023-04-09T10:17:51.944Z,100763.22
2023-04-09T10:20:42.337Z,100774.66
2023-04-09T10:23:15.757Z,100760.31
2023-04-09T10:25:43.864Z,100762.16
2023-04-09T10:28:18.950Z,100773.69
2023-04-09T10:30:46.699Z,100754.16
2023-04-09T10:33:27.080Z,100758.38
2023-04-09T10:35:55.866Z,100760.25
2023-04-09T10:38:51.115Z,100754.25
2023-04-09T10:41:29.535Z,100752.44
2023-04-09T10:43:57.841Z,100747.88
2023-04-09T10:46:31.763Z,100762.06
2023-04-09T10:49:13.768Z,100757.81
2023-04-09T10:51:42.538Z,100757.28
2023-04-09T10:54:36.098Z,100761.56
2023-04-09T10:57:17.981Z,100761.00
2023-04-09T10:59:48.698Z,100758.97
2023-04-09T11:02:39.041Z,100754.72
2023-04-09T11:05:24.806Z,100749.03
2023-04-09T11:07:53.880Z,100750.56
2023-04-09T11:10:22.046Z,100752.06
2023-04-09T11:12:49.827Z,100745.41
2023-04-09T11:15:18.909Z,100746.34
2023-04-09T11:17:47.815Z,100749.56
2023-04-09T11:20:17.946Z,100753.31
2023-04-09T11:22:45.741Z,100746.81
2023-04-09T11:25:23.257Z,100759.97
2023-04-09T11:27:51.242Z,100750.69
2023-04-09T11:30:19.545Z,100758.53
2023-04-09T11:32:48.453Z,100755.16
2023-04-09T11:35:19.071Z,100756.41
2023-04-09T11:37:47.553Z,100758.59
2023-04-09T11:40:23.173Z,100753.69
2023-04-09T11:42:53.428Z,100753.25
2023-04-09T11:45:24.828Z,100759.00
2023-04-09T11:47:52.628Z,100750.13
2023-04-09T11:50:21.872Z,100757.56
2023-04-09T11:52:50.000Z,100753.75
2023-04-09T11:55:28.405Z,100751.69
2023-04-09T11:58:03.348Z,100751.25
2023-04-09T12:00:32.647Z,100749.25
2023-04-09T12:03:05.572Z,100747.03
2023-04-09T12:05:35.200Z,100746.47
2023-04-09T12:08:05.178Z,100747.00
2023-04-09T12:10:35.469Z,100751.03
2023-04-09T12:13:08.197Z,100750.09
2023-04-09T12:15:41.134Z,100751.75
2023-04-09T12:18:10.064Z,100750.56
2023-04-09T12:20:46.512Z,100731.94
2023-04-09T12:23:14.505Z,100737.03
2023-04-09T12:25:45.884Z,100731.06
2023-04-09T12:28:18.643Z,100735.78
2023-04-09T12:30:47.037Z,100733.09
2023-04-09T12:33:14.657Z,100727.63
2023-04-09T12:35:42.220Z,100725.22
2023-04-09T12:38:09.884Z,100725.91
2023-04-09T12:40:39.542Z,100718.03
2023-04-09T12:43:07.116Z,100718.06
2023-04-09T12:45:34.742Z,100732.72
2023-04-09T12:48:02.384Z,100727.84
2023-04-09T12:50:29.858Z,100727.28
2023-04-09T12:52:59.583Z,100730.16
2023-04-09T12:55:27.950Z,100726.94
2023-04-09T12:57:55.455Z,100722.94
2023-04-09T13:00:23.071Z,100724.22
2023-04-09T13:02:52.918Z,100726.59
2023-04-09T13:05:20.638Z,100726.16
2023-04-09T13:07:48.046Z,100724.13
2023-04-09T13:10:15.526Z,100719.25
2023-04-09T13:12:42.984Z,100729.19
2023-04-09T13:15:11.846Z,100720.03
2023-04-09T13:17:39.408Z,100723.25
2023-04-09T13:20:07.796Z,100714.22
2023-04-09T13:22:36.199Z,100729.53
2023-04-09T13:25:04.832Z,100730.00
2023-04-09T13:27:32.782Z,100734.78
2023-04-09T13:30:00.392Z,100726.50
2023-04-09T13:32:27.898Z,100724.19
2023-04-09T13:34:55.927Z,100717.66
2023-04-09T13:37:23.901Z,100724.50
2023-04-09T13:39:51.657Z,100728.63
2023-04-09T13:42:19.200Z,100729.31
2023-04-09T13:44:46.809Z,100725.63
2023-04-09T13:47:16.396Z,100726.13
2023-04-09T13:49:44.153Z,100729.38
2023-04-09T13:52:11.791Z,100726.41
2023-04-09T13:54:39.302Z,100727.00
2023-04-09T13:57:07.002Z,100720.69
2023-04-09T13:59:34.590Z,100727.16
2023-04-09T14:02:02.346Z,100733.03
2023-04-09T14:04:30.480Z,100728.13
2023-04-09T14:06:58.306Z,100727.53
2023-04-09T14:09:25.720Z,100734.06
2023-04-09T14:11:54.954Z,100734.69
2023-04-09T14:14:22.637Z,100729.16
2023-04-09T14:16:50.903Z,100732.78
2023-04-09T14:19:18.549Z,100733.47
2023-04-09T14:21:46.154Z,100720.91
2023-04-09T14:24:13.632Z,100723.50
2023-04-09T14:26:41.069Z,100728.69
2023-04-09T14:29:08.618Z,100728.53
2023-04-09T14:31:36.257Z,100724.28
2023-04-09T14:34:03.864Z,100724.13
2023-04-09T14:36:33.838Z,100720.53
2023-04-09T14:39:03.759Z,100715.97
2023-04-09T14:41:34.245Z,100720.34
2023-04-09T14:44:01.800Z,100715.13
2023-04-09T14:46:29.357Z,100716.06
2023-04-09T14:48:56.845Z,100711.63
2023-04-09T14:51:24.413Z,100715.00
2023-04-09T14:53:51.856Z,100714.88
2023-04-09T14:56:19.412Z,100713.44
2023-04-09T14:58:46.993Z,100711.81
2023-04-09T15:01:14.475Z,100713.47
2023-04-09T15:03:42.353Z,100710.06
2023-04-09T15:06:11.566Z,100704.94
2023-04-09T15:08:39.164Z,100711.97
2023-04-09T15:11:06.669Z,100712.03
2023-04-09T15:13:34.274Z,100703.44
2023-04-09T15:16:01.755Z,100705.09
2023-04-09T15:18:29.291Z,100697.34
2023-04-09T15:20:56.737Z,100701.81
2023-04-09T15:23:24.299Z,100703.44
2023-04-09T15:25:51.797Z,100699.97
2023-04-09T15:28:19.357Z,100706.09
2023-04-09T15:30:46.806Z,100695.66
2023-04-09T15:33:14.311Z,100693.81
2023-04-09T15:35:41.991Z,100699.84
2023-04-09T15:38:09.442Z,100704.13
2023-04-09T15:40:42.943Z,100697.84
2023-04-09T15:43:10.449Z,100701.28
2023-04-09T15:45:37.902Z,100690.72
2023-04-09T15:48:05.815Z,100692.38
2023-04-09T15:50:34.533Z,100706.09
2023-04-09T15:53:02.179Z,100686.03
2023-04-09T15:55:29.683Z,100699.97
2023-04-09T15:57:57.226Z,100684.16
2023-04-09T16:00:24.732Z,100694.75
2023-04-09T16:02:53.441Z,100695.88
2023-04-09T16:05:21.053Z,100690.59
2023-04-09T16:07:51.504Z,100693.97
2023-04-09T16:10:19.326Z,100699.97
2023-04-09T16:12:47.267Z,100692.91
2023-04-09T16:15:14.780Z,100704.03
2023-04-09T16:17:42.286Z,100696.06
2023-04-09T16:20:09.784Z,100702.94
2023-04-09T16:22:37.381Z,100714.25
2023-04-09T16:25:06.187Z,100710.00
2023-04-09T16:27:33.686Z,100715.78
2023-04-09T16:30:01.266Z,100711.84
2023-04-09T16:32:28.853Z,100713.19
2023-04-09T16:35:00.613Z,100713.84
2023-04-09T16:37:29.348Z,100705.41
2023-04-09T16:39:58.173Z,100719.59
2023-04-09T16:42:27.500Z,100708.38
2023-04-09T16:44:55.016Z,100711.31
2023-04-09T16:47:22.509Z,100718.69
2023-04-09T16:49:49.995Z,100719.13
2023-04-09T16:52:17.640Z,100720.25
2023-04-09T16:54:45.072Z,100712.75
2023-04-09T16:57:12.757Z,100724.59
2023-04-09T16:59:42.569Z,100718.84
2023-04-09T17:02:10.403Z,100720.81
2023-04-09T17:04:38.309Z,100720.56
2023-04-09T17:07:05.947Z,100725.44
2023-04-09T17:09:33.371Z,100722.47
2023-04-09T17:12:01.186Z,100718.88
2023-04-09T17:14:28.665Z,100731.84
2023-04-09T17:16:56.847Z,100722.88
2023-04-09T17:19:24.401Z,100728.03
2023-04-09T17:21:51.975Z,100721.94
2023-04-09T17:24:19.442Z,100728.69
2023-04-09T17:26:46.955Z,100730.22
2023-04-09T17:29:14.651Z,100725.00
2023-04-09T17:31:42.537Z,100735.31
2023-04-09T17:34:13.680Z,100736.91
2023-04-09T17:36:41.571Z,100727.06
2023-04-09T17:39:09.353Z,100732.81
2023-04-09T17:41:37.745Z,100736.97
2023-04-09T17:44:07.804Z,100739.47
2023-04-09T17:46:36.143Z,100727.31
2023-04-09T17:49:03.860Z,100732.41
2023-04-09T17:51:31.351Z,100725.44
2023-04-09T17:53:58.786Z,100725.22
2023-04-09T17:56:27.259Z,100720.88
2023-04-09T17:58:54.775Z,100727.13
2023-04-09T18:01:23.021Z,100724.56
2023-04-09T18:03:51.040Z,100726.25
2023-04-09T18:06:18.734Z,100727.13
2023-04-09T18:08:46.774Z,100732.41
2023-04-09T18:11:15.641Z,100730.78
2023-04-09T18:13:43.179Z,100732.28
2023-04-09T18:16:12.407Z,100731.16
2023-04-09T18:18:40.405Z,100716.16
2023-04-09T18:21:07.999Z,100737.88
2023-04-09T18:23:35.608Z,100729.28
2023-04-09T18:26:03.160Z,100732.75
2023-04-09T18:28:30.783Z,100726.63
2023-04-09T18:30:58.917Z,100720.47
2023-04-09T18:33:27.208Z,100721.47
2023-04-09T18:35:54.788Z,100726.50
2023-04-09T18:38:22.771Z,100723.06
2023-04-09T18:40:50.405Z,100719.59
2023-04-09T18:43:17.963Z,100717.78
2023-04-09T18:45:45.520Z,100714.47
2023-04-09T18:48:12.949Z,100729.03
2023-04-09T18:50:40.424Z,100722.78
2023-04-09T18:53:07.875Z,100713.16
2023-04-09T18:55:38.568Z,100729.63
2023-04-09T18:58:12.894Z,100725.97
2023-04-09T19:00:40.596Z,100729.41
2023-04-09T19:03:08.893Z,100719.78
2023-04-09T19:05:36.678Z,100717.13
2023-04-09T19:08:05.660Z,100723.16
2023-04-09T19:10:33.075Z,100731.81
2023-04-09T19:13:00.590Z,100724.91
2023-04-09T19:15:31.336Z,100730.06
2023-04-09T19:17:58.956Z,100725.72
2023-04-09T19:21:19.148Z,100725.66
2023-04-09T19:24:41.821Z,100717.34
2023-04-09T19:32:09.351Z,100737.88
2023-04-09T19:34:36.889Z,100739.34
2023-04-09T19:37:04.339Z,100737.38
2023-04-09T19:39:31.843Z,100738.19
2023-04-09T19:42:48.295Z,100738.00
2023-04-09T19:45:21.975Z,100733.63
2023-04-09T19:47:49.505Z,100734.25
2023-04-09T19:51:02.072Z,100743.97
2023-04-09T19:53:59.324Z,100740.53
2023-04-09T19:57:15.842Z,100737.50
2023-04-09T20:13:42.251Z,100744.78
2023-04-09T20:16:19.082Z,100736.69
2023-04-09T20:19:22.229Z,100744.16
2023-04-09T20:21:49.700Z,100734.81
2023-04-09T20:24:17.915Z,100743.28
2023-04-09T20:26:46.411Z,100737.25
2023-04-09T20:29:14.785Z,100733.88
2023-04-09T20:31:43.601Z,100738.19
2023-04-09T20:34:11.416Z,100740.91
2023-04-09T20:36:43.577Z,100736.50
2023-04-09T20:39:11.760Z,100733.06
2023-04-09T20:41:39.202Z,100728.72
2023-04-09T20:44:06.773Z,100744.16
2023-04-09T20:46:34.337Z,100742.41
2023-04-09T20:49:03.955Z,100739.66
2023-04-09T20:51:31.581Z,100742.72
2023-04-09T20:53:59.547Z,100746.03
2023-04-09T20:56:27.118Z,100745.88
2023-04-09T20:58:54.880Z,100740.69
2023-04-09T21:01:23.308Z,100736.16
2023-04-09T21:03:50.971Z,100742.44
2023-04-09T21:06:18.542Z,100737.28
2023-04-09T21:08:46.129Z,100749.47
2023-04-09T21:11:13.763Z,100748.84
2023-04-09T21:13:53.956Z,100755.88
2023-04-09T21:16:22.906Z,100746.41
2023-04-09T21:18:50.627Z,100747.09
2023-04-09T21:21:18.593Z,100754.69
2023-04-09T21:23:46.039Z,100749.47
2023-04-09T21:26:14.246Z,100745.97
2023-04-09T21:28:41.914Z,100747.59
2023-04-09T21:31:11.234Z,100750.16
2023-04-09T21:33:41.877Z,100744.03
2023-04-09T21:36:09.473Z,100741.56
2023-04-09T21:38:36.973Z,100739.94
2023-04-09T21:41:04.794Z,100747.88
2023-04-09T21:43:32.319Z,100750.75
2023-04-09T21:45:59.798Z,100748.19
2023-04-09T21:48:29.084Z,100745.91
2023-04-09T21:50:59.845Z,100746.16
2023-04-09T21:53:28.283Z,100737.47
2023-04-09T21:55:55.965Z,100743.97
2023-04-09T21:58:23.497Z,100748.88
2023-04-09T22:00:50.973Z,100741.09
2023-04-09T22:03:18.608Z,100736.75
2023-04-09T22:05:46.141Z,100743.66
2023-04-09T22:08:13.609Z,100746.38
2023-04-09T22:10:41.035Z,100741.81
2023-04-09T22:13:08.749Z,100743.72
2023-04-09T22:15:36.181Z,100751.38
2023-04-09T22:18:03.875Z,100753.78
2023-04-09T22:20:31.333Z,100751.88
2023-04-09T22:22:58.867Z,100744.41
2023-04-09T22:25:26.566Z,100753.06
2023-04-09T22:27:54.264Z,100748.63
2023-04-09T22:30:23.804Z,100741.72
2023-04-09T22:32:51.727Z,100742.53
2023-04-09T22:35:19.341Z,100750.50
2023-04-09T22:37:47.247Z,100745.34
2023-04-09T22:40:16.049Z,100750.41
2023-04-09T22:42:46.398Z,100743.34
2023-04-09T22:45:14.573Z,100740.13
2023-04-09T22:47:42.028Z,100728.72
2023-04-09T22:50:09.767Z,100735.78
2023-04-09T22:52:37.353Z,100734.31
2023-04-09T22:55:05.190Z,100730.06
2023-04-09T22:57:32.782Z,100733.56
2023-04-09T23:00:00.284Z,100737.94
2023-04-09T23:02:27.878Z,100731.00
2023-04-09T23:04:55.899Z,100730.00
2023-04-09T23:07:23.463Z,100736.38
2023-04-09T23:09:51.419Z,100740.59
2023-04-09T23:12:18.860Z,100730.28
2023-04-09T23:14:49.345Z,100738.00
2023-04-09T23:17:17.078Z,100730.94
2023-04-09T23:19:44.849Z,100728.28
2023-04-09T23:22:12.300Z,100733.75
2023-04-09T23:24:39.866Z,100739.84
2023-04-09T23:27:07.312Z,100733.88
2023-04-09T23:29:34.965Z,100733.06
2023-04-09T23:32:03.098Z,100737.34
2023-04-09T23:34:30.595Z,100735.38
2023-04-09T23:36:58.018Z,100739.53
2023-04-09T23:39:25.449Z,100736.91
2023-04-09T23:41:53.154Z,100731.63
2023-04-09T23:44:20.596Z,100731.44
2023-04-09T23:46:48.140Z,100737.56
2023-04-09T23:49:16.273Z,100740.03
2023-04-09T23:51:43.757Z,100735.56
2023-04-09T23:54:11.198Z,100735.56
2023-04-09T23:56:38.603Z,100734.50
2023-04-09T23:59:06.510Z,100752.75
